sensor_id;sensor_type;location;lat;lon;timestamp;P1;durP1;ratioP1;P2;durP2;ratioP2
66179;SDS011;52986;44.028;20.466;2023-12-20T00:02:11;164.20;;;68.68;;
66179;SDS011;52986;44.028;20.466;2023-12-20T00:04:37;118.68;;;50.55;;
66179;SDS011;52986;44.028;20.466;2023-12-20T00:07:02;125.38;;;50.42;;
66179;SDS011;52986;44.028;20.466;2023-12-20T00:09:28;123.43;;;50.22;;
66179;SDS011;52986;44.028;20.466;2023-12-20T00:11:53;132.82;;;52.53;;
66179;SDS011;52986;44.028;20.466;2023-12-20T00:14:19;146.93;;;57.30;;
66179;SDS011;52986;44.028;20.466;2023-12-20T00:16:44;140.15;;;58.35;;
66179;SDS011;52986;44.028;20.466;2023-12-20T00:19:09;127.20;;;52.90;;
66179;SDS011;52986;44.028;20.466;2023-12-20T00:21:35;132.02;;;51.08;;
66179;SDS011;52986;44.028;20.466;2023-12-20T00:24:00;140.68;;;57.83;;
66179;SDS011;52986;44.028;20.466;2023-12-20T00:26:26;125.90;;;49.70;;
66179;SDS011;52986;44.028;20.466;2023-12-20T00:28:53;131.75;;;54.63;;
66179;SDS011;52986;44.028;20.466;2023-12-20T00:31:18;128.30;;;50.58;;
66179;SDS011;52986;44.028;20.466;2023-12-20T00:33:44;122.65;;;48.45;;
66179;SDS011;52986;44.028;20.466;2023-12-20T00:36:11;119.53;;;49.30;;
66179;SDS011;52986;44.028;20.466;2023-12-20T00:38:36;138.15;;;54.85;;
66179;SDS011;52986;44.028;20.466;2023-12-20T00:41:02;130.02;;;49.55;;
66179;SDS011;52986;44.028;20.466;2023-12-20T00:43:27;128.88;;;48.30;;
66179;SDS011;52986;44.028;20.466;2023-12-20T00:45:53;126.82;;;48.38;;
66179;SDS011;52986;44.028;20.466;2023-12-20T00:48:18;154.98;;;61.75;;
66179;SDS011;52986;44.028;20.466;2023-12-20T00:50:44;147.73;;;58.85;;
66179;SDS011;52986;44.028;20.466;2023-12-20T00:53:09;147.48;;;59.90;;
66179;SDS011;52986;44.028;20.466;2023-12-20T00:55:35;141.30;;;54.30;;
66179;SDS011;52986;44.028;20.466;2023-12-20T00:58:00;143.63;;;59.03;;
66179;SDS011;52986;44.028;20.466;2023-12-20T01:00:25;144.93;;;55.38;;
66179;SDS011;52986;44.028;20.466;2023-12-20T01:02:51;143.82;;;55.03;;
66179;SDS011;52986;44.028;20.466;2023-12-20T01:05:17;120.63;;;47.90;;
66179;SDS011;52986;44.028;20.466;2023-12-20T01:07:44;123.30;;;49.97;;
66179;SDS011;52986;44.028;20.466;2023-12-20T01:10:09;111.15;;;44.08;;
66179;SDS011;52986;44.028;20.466;2023-12-20T01:12:35;114.53;;;46.13;;
66179;SDS011;52986;44.028;20.466;2023-12-20T01:15:01;118.47;;;45.00;;
66179;SDS011;52986;44.028;20.466;2023-12-20T01:17:27;110.93;;;45.30;;
66179;SDS011;52986;44.028;20.466;2023-12-20T01:19:52;118.95;;;45.50;;
66179;SDS011;52986;44.028;20.466;2023-12-20T01:22:18;140.10;;;56.05;;
66179;SDS011;52986;44.028;20.466;2023-12-20T01:24:44;130.20;;;52.55;;
66179;SDS011;52986;44.028;20.466;2023-12-20T01:27:09;114.78;;;45.38;;
66179;SDS011;52986;44.028;20.466;2023-12-20T01:29:35;110.03;;;44.47;;
66179;SDS011;52986;44.028;20.466;2023-12-20T01:32:00;105.88;;;43.03;;
66179;SDS011;52986;44.028;20.466;2023-12-20T01:34:26;104.60;;;40.53;;
66179;SDS011;52986;44.028;20.466;2023-12-20T01:36:51;106.05;;;42.28;;
66179;SDS011;52986;44.028;20.466;2023-12-20T01:39:17;106.13;;;40.60;;
66179;SDS011;52986;44.028;20.466;2023-12-20T01:41:42;107.60;;;41.03;;
66179;SDS011;52986;44.028;20.466;2023-12-20T01:44:08;114.25;;;43.03;;
66179;SDS011;52986;44.028;20.466;2023-12-20T01:46:33;112.80;;;44.10;;
66179;SDS011;52986;44.028;20.466;2023-12-20T01:48:59;113.00;;;43.88;;
66179;SDS011;52986;44.028;20.466;2023-12-20T01:51:25;108.82;;;42.67;;
66179;SDS011;52986;44.028;20.466;2023-12-20T01:53:52;109.43;;;40.08;;
66179;SDS011;52986;44.028;20.466;2023-12-20T01:56:20;113.50;;;42.75;;
66179;SDS011;52986;44.028;20.466;2023-12-20T01:58:46;118.63;;;45.10;;
66179;SDS011;52986;44.028;20.466;2023-12-20T02:01:12;121.40;;;45.50;;
66179;SDS011;52986;44.028;20.466;2023-12-20T02:03:39;121.78;;;46.40;;
66179;SDS011;52986;44.028;20.466;2023-12-20T02:06:07;132.38;;;46.17;;
66179;SDS011;52986;44.028;20.466;2023-12-20T02:08:32;131.15;;;49.42;;
66179;SDS011;52986;44.028;20.466;2023-12-20T02:10:58;126.00;;;49.70;;
66179;SDS011;52986;44.028;20.466;2023-12-20T02:13:24;129.27;;;50.15;;
66179;SDS011;52986;44.028;20.466;2023-12-20T02:15:51;125.50;;;48.65;;
66179;SDS011;52986;44.028;20.466;2023-12-20T02:18:17;137.20;;;51.15;;
66179;SDS011;52986;44.028;20.466;2023-12-20T02:20:42;131.73;;;50.63;;
66179;SDS011;52986;44.028;20.466;2023-12-20T02:23:08;136.65;;;51.63;;
66179;SDS011;52986;44.028;20.466;2023-12-20T02:25:34;136.73;;;52.75;;
66179;SDS011;52986;44.028;20.466;2023-12-20T02:27:59;135.23;;;53.20;;
66179;SDS011;52986;44.028;20.466;2023-12-20T02:30:25;138.52;;;57.40;;
66179;SDS011;52986;44.028;20.466;2023-12-20T02:32:50;131.85;;;53.00;;
66179;SDS011;52986;44.028;20.466;2023-12-20T02:35:17;129.75;;;54.90;;
66179;SDS011;52986;44.028;20.466;2023-12-20T02:37:42;131.23;;;55.97;;
66179;SDS011;52986;44.028;20.466;2023-12-20T02:40:08;150.30;;;59.38;;
66179;SDS011;52986;44.028;20.466;2023-12-20T02:42:34;145.20;;;59.17;;
66179;SDS011;52986;44.028;20.466;2023-12-20T02:44:59;152.35;;;64.47;;
66179;SDS011;52986;44.028;20.466;2023-12-20T02:47:24;161.50;;;62.00;;
66179;SDS011;52986;44.028;20.466;2023-12-20T02:49:50;167.30;;;64.78;;
66179;SDS011;52986;44.028;20.466;2023-12-20T02:52:15;159.77;;;64.10;;
66179;SDS011;52986;44.028;20.466;2023-12-20T02:54:41;154.32;;;60.05;;
66179;SDS011;52986;44.028;20.466;2023-12-20T02:57:06;154.18;;;60.65;;
66179;SDS011;52986;44.028;20.466;2023-12-20T02:59:32;156.68;;;59.30;;
66179;SDS011;52986;44.028;20.466;2023-12-20T03:01:57;140.40;;;56.05;;
66179;SDS011;52986;44.028;20.466;2023-12-20T03:04:22;134.77;;;54.95;;
66179;SDS011;52986;44.028;20.466;2023-12-20T03:06:48;143.02;;;58.17;;
66179;SDS011;52986;44.028;20.466;2023-12-20T03:09:13;136.45;;;55.22;;
66179;SDS011;52986;44.028;20.466;2023-12-20T03:11:39;145.40;;;59.90;;
66179;SDS011;52986;44.028;20.466;2023-12-20T03:14:04;147.52;;;57.53;;
66179;SDS011;52986;44.028;20.466;2023-12-20T03:16:30;153.15;;;57.97;;
66179;SDS011;52986;44.028;20.466;2023-12-20T03:18:56;125.13;;;52.50;;
66179;SDS011;52986;44.028;20.466;2023-12-20T03:21:21;129.77;;;52.90;;
66179;SDS011;52986;44.028;20.466;2023-12-20T03:23:47;136.77;;;54.47;;
66179;SDS011;52986;44.028;20.466;2023-12-20T03:26:13;132.05;;;53.58;;
66179;SDS011;52986;44.028;20.466;2023-12-20T03:28:39;128.23;;;52.03;;
66179;SDS011;52986;44.028;20.466;2023-12-20T03:31:04;137.35;;;54.95;;
66179;SDS011;52986;44.028;20.466;2023-12-20T03:33:30;136.80;;;53.58;;
66179;SDS011;52986;44.028;20.466;2023-12-20T03:35:55;129.27;;;52.05;;
66179;SDS011;52986;44.028;20.466;2023-12-20T03:38:21;131.25;;;51.83;;
66179;SDS011;52986;44.028;20.466;2023-12-20T03:40:49;130.20;;;57.17;;
66179;SDS011;52986;44.028;20.466;2023-12-20T03:43:14;136.02;;;54.88;;
66179;SDS011;52986;44.028;20.466;2023-12-20T03:45:40;151.35;;;60.45;;
66179;SDS011;52986;44.028;20.466;2023-12-20T03:48:05;166.30;;;66.88;;
66179;SDS011;52986;44.028;20.466;2023-12-20T03:50:31;159.80;;;63.92;;
66179;SDS011;52986;44.028;20.466;2023-12-20T03:52:56;138.02;;;57.15;;
66179;SDS011;52986;44.028;20.466;2023-12-20T03:55:22;142.88;;;57.17;;
66179;SDS011;52986;44.028;20.466;2023-12-20T03:57:47;143.73;;;62.20;;
66179;SDS011;52986;44.028;20.466;2023-12-20T04:00:13;152.85;;;60.92;;
66179;SDS011;52986;44.028;20.466;2023-12-20T04:02:41;141.93;;;58.70;;
66179;SDS011;52986;44.028;20.466;2023-12-20T04:05:08;134.52;;;57.03;;
66179;SDS011;52986;44.028;20.466;2023-12-20T04:07:34;141.73;;;56.72;;
66179;SDS011;52986;44.028;20.466;2023-12-20T04:10:00;130.43;;;56.47;;
66179;SDS011;52986;44.028;20.466;2023-12-20T04:12:26;141.40;;;57.58;;
66179;SDS011;52986;44.028;20.466;2023-12-20T04:14:53;137.45;;;57.05;;
66179;SDS011;52986;44.028;20.466;2023-12-20T04:17:18;133.40;;;57.03;;
66179;SDS011;52986;44.028;20.466;2023-12-20T04:19:44;135.55;;;55.20;;
66179;SDS011;52986;44.028;20.466;2023-12-20T04:22:09;136.45;;;56.38;;
66179;SDS011;52986;44.028;20.466;2023-12-20T04:24:34;131.98;;;54.40;;
66179;SDS011;52986;44.028;20.466;2023-12-20T04:27:00;129.07;;;54.63;;
66179;SDS011;52986;44.028;20.466;2023-12-20T04:29:26;128.57;;;50.75;;
66179;SDS011;52986;44.028;20.466;2023-12-20T04:31:52;120.45;;;51.67;;
66179;SDS011;52986;44.028;20.466;2023-12-20T04:34:17;118.95;;;49.50;;
66179;SDS011;52986;44.028;20.466;2023-12-20T04:36:43;128.23;;;54.30;;
66179;SDS011;52986;44.028;20.466;2023-12-20T04:39:09;122.97;;;50.55;;
66179;SDS011;52986;44.028;20.466;2023-12-20T04:41:35;119.68;;;50.40;;
66179;SDS011;52986;44.028;20.466;2023-12-20T04:44:00;121.13;;;50.05;;
66179;SDS011;52986;44.028;20.466;2023-12-20T04:46:26;117.07;;;45.78;;
66179;SDS011;52986;44.028;20.466;2023-12-20T04:48:51;110.78;;;44.22;;
66179;SDS011;52986;44.028;20.466;2023-12-20T04:51:17;107.05;;;43.85;;
66179;SDS011;52986;44.028;20.466;2023-12-20T04:53:43;97.07;;;39.42;;
66179;SDS011;52986;44.028;20.466;2023-12-20T04:56:08;80.90;;;32.75;;
66179;SDS011;52986;44.028;20.466;2023-12-20T04:58:33;77.22;;;32.55;;
66179;SDS011;52986;44.028;20.466;2023-12-20T05:00:59;71.05;;;31.65;;
66179;SDS011;52986;44.028;20.466;2023-12-20T05:03:25;77.32;;;33.25;;
66179;SDS011;52986;44.028;20.466;2023-12-20T05:05:50;70.60;;;31.23;;
66179;SDS011;52986;44.028;20.466;2023-12-20T05:08:15;72.50;;;30.77;;
66179;SDS011;52986;44.028;20.466;2023-12-20T05:10:41;84.35;;;37.00;;
66179;SDS011;52986;44.028;20.466;2023-12-20T05:13:06;86.53;;;36.38;;
66179;SDS011;52986;44.028;20.466;2023-12-20T05:15:32;86.80;;;36.97;;
66179;SDS011;52986;44.028;20.466;2023-12-20T05:17:58;88.70;;;37.97;;
66179;SDS011;52986;44.028;20.466;2023-12-20T05:20:23;84.78;;;37.50;;
66179;SDS011;52986;44.028;20.466;2023-12-20T05:22:49;88.72;;;36.90;;
66179;SDS011;52986;44.028;20.466;2023-12-20T05:25:14;90.50;;;38.10;;
66179;SDS011;52986;44.028;20.466;2023-12-20T05:27:40;94.10;;;40.55;;
66179;SDS011;52986;44.028;20.466;2023-12-20T05:30:05;97.72;;;39.22;;
66179;SDS011;52986;44.028;20.466;2023-12-20T05:32:31;94.00;;;38.30;;
66179;SDS011;52986;44.028;20.466;2023-12-20T05:34:57;94.15;;;37.50;;
66179;SDS011;52986;44.028;20.466;2023-12-20T05:37:22;88.45;;;37.35;;
66179;SDS011;52986;44.028;20.466;2023-12-20T05:39:47;91.32;;;37.55;;
66179;SDS011;52986;44.028;20.466;2023-12-20T05:42:13;91.95;;;38.80;;
66179;SDS011;52986;44.028;20.466;2023-12-20T05:44:38;95.80;;;40.05;;
66179;SDS011;52986;44.028;20.466;2023-12-20T05:47:04;98.90;;;40.17;;
66179;SDS011;52986;44.028;20.466;2023-12-20T05:49:29;88.50;;;38.30;;
66179;SDS011;52986;44.028;20.466;2023-12-20T05:51:55;97.00;;;40.78;;
66179;SDS011;52986;44.028;20.466;2023-12-20T05:54:20;96.93;;;40.42;;
66179;SDS011;52986;44.028;20.466;2023-12-20T05:56:46;102.63;;;42.33;;
66179;SDS011;52986;44.028;20.466;2023-12-20T05:59:12;98.32;;;41.80;;
66179;SDS011;52986;44.028;20.466;2023-12-20T06:01:37;108.45;;;42.40;;
66179;SDS011;52986;44.028;20.466;2023-12-20T06:04:03;103.75;;;43.28;;
66179;SDS011;52986;44.028;20.466;2023-12-20T06:06:29;114.10;;;45.38;;
66179;SDS011;52986;44.028;20.466;2023-12-20T06:08:55;120.57;;;48.20;;
66179;SDS011;52986;44.028;20.466;2023-12-20T06:11:21;108.25;;;44.88;;
66179;SDS011;52986;44.028;20.466;2023-12-20T06:13:46;110.63;;;45.30;;
66179;SDS011;52986;44.028;20.466;2023-12-20T06:16:12;107.35;;;43.75;;
66179;SDS011;52986;44.028;20.466;2023-12-20T06:18:37;109.68;;;45.67;;
66179;SDS011;52986;44.028;20.466;2023-12-20T06:21:03;107.35;;;44.35;;
66179;SDS011;52986;44.028;20.466;2023-12-20T06:23:29;106.05;;;47.20;;
66179;SDS011;52986;44.028;20.466;2023-12-20T06:25:54;109.45;;;45.85;;
66179;SDS011;52986;44.028;20.466;2023-12-20T06:28:20;116.43;;;48.33;;
66179;SDS011;52986;44.028;20.466;2023-12-20T06:30:45;110.68;;;45.78;;
66179;SDS011;52986;44.028;20.466;2023-12-20T06:33:14;111.57;;;47.38;;
66179;SDS011;52986;44.028;20.466;2023-12-20T06:35:39;113.20;;;48.83;;
66179;SDS011;52986;44.028;20.466;2023-12-20T06:38:05;109.30;;;47.58;;
66179;SDS011;52986;44.028;20.466;2023-12-20T06:40:30;111.70;;;46.53;;
66179;SDS011;52986;44.028;20.466;2023-12-20T06:42:56;115.60;;;46.90;;
66179;SDS011;52986;44.028;20.466;2023-12-20T06:45:21;110.95;;;44.70;;
66179;SDS011;52986;44.028;20.466;2023-12-20T06:47:47;113.38;;;48.25;;
66179;SDS011;52986;44.028;20.466;2023-12-20T06:50:12;121.90;;;51.33;;
66179;SDS011;52986;44.028;20.466;2023-12-20T06:52:37;131.23;;;54.83;;
66179;SDS011;52986;44.028;20.466;2023-12-20T06:55:03;157.02;;;65.50;;
66179;SDS011;52986;44.028;20.466;2023-12-20T06:57:29;156.15;;;66.78;;
66179;SDS011;52986;44.028;20.466;2023-12-20T06:59:55;150.10;;;62.72;;
66179;SDS011;52986;44.028;20.466;2023-12-20T07:02:20;144.18;;;58.22;;
66179;SDS011;52986;44.028;20.466;2023-12-20T07:04:47;130.60;;;55.15;;
66179;SDS011;52986;44.028;20.466;2023-12-20T07:07:13;127.32;;;53.45;;
66179;SDS011;52986;44.028;20.466;2023-12-20T07:09:38;119.82;;;51.70;;
66179;SDS011;52986;44.028;20.466;2023-12-20T07:12:04;126.35;;;55.42;;
66179;SDS011;52986;44.028;20.466;2023-12-20T07:14:29;133.98;;;59.38;;
66179;SDS011;52986;44.028;20.466;2023-12-20T07:16:55;119.50;;;51.10;;
66179;SDS011;52986;44.028;20.466;2023-12-20T07:19:20;154.45;;;68.68;;
66179;SDS011;52986;44.028;20.466;2023-12-20T07:21:46;153.30;;;68.00;;
66179;SDS011;52986;44.028;20.466;2023-12-20T07:24:11;159.20;;;71.30;;
66179;SDS011;52986;44.028;20.466;2023-12-20T07:26:37;141.07;;;63.05;;
66179;SDS011;52986;44.028;20.466;2023-12-20T07:29:03;190.52;;;80.70;;
66179;SDS011;52986;44.028;20.466;2023-12-20T07:31:29;221.40;;;93.07;;
66179;SDS011;52986;44.028;20.466;2023-12-20T07:33:54;218.93;;;91.30;;
66179;SDS011;52986;44.028;20.466;2023-12-20T07:36:20;193.48;;;82.97;;
66179;SDS011;52986;44.028;20.466;2023-12-20T07:38:46;195.55;;;85.70;;
66179;SDS011;52986;44.028;20.466;2023-12-20T07:41:12;195.70;;;82.20;;
66179;SDS011;52986;44.028;20.466;2023-12-20T07:43:37;155.02;;;68.05;;
66179;SDS011;52986;44.028;20.466;2023-12-20T07:46:04;153.77;;;68.38;;
66179;SDS011;52986;44.028;20.466;2023-12-20T07:48:34;189.13;;;78.22;;
66179;SDS011;52986;44.028;20.466;2023-12-20T07:51:00;176.07;;;78.10;;
66179;SDS011;52986;44.028;20.466;2023-12-20T07:53:26;164.75;;;77.35;;
66179;SDS011;52986;44.028;20.466;2023-12-20T07:55:52;183.27;;;79.53;;
66179;SDS011;52986;44.028;20.466;2023-12-20T07:58:18;174.75;;;75.57;;
66179;SDS011;52986;44.028;20.466;2023-12-20T08:00:43;158.38;;;73.75;;
66179;SDS011;52986;44.028;20.466;2023-12-20T08:03:09;135.73;;;62.97;;
66179;SDS011;52986;44.028;20.466;2023-12-20T08:05:34;120.85;;;56.28;;
66179;SDS011;52986;44.028;20.466;2023-12-20T08:08:00;127.85;;;61.50;;
66179;SDS011;52986;44.028;20.466;2023-12-20T08:10:25;134.98;;;69.05;;
66179;SDS011;52986;44.028;20.466;2023-12-20T08:12:52;122.35;;;59.22;;
66179;SDS011;52986;44.028;20.466;2023-12-20T08:15:17;131.63;;;63.25;;
66179;SDS011;52986;44.028;20.466;2023-12-20T08:17:43;132.90;;;69.35;;
66179;SDS011;52986;44.028;20.466;2023-12-20T08:20:08;139.70;;;68.47;;
66179;SDS011;52986;44.028;20.466;2023-12-20T08:22:34;128.90;;;64.45;;
66179;SDS011;52986;44.028;20.466;2023-12-20T08:24:59;130.48;;;66.35;;
66179;SDS011;52986;44.028;20.466;2023-12-20T08:27:24;142.25;;;65.95;;
66179;SDS011;52986;44.028;20.466;2023-12-20T08:29:50;145.65;;;73.60;;
66179;SDS011;52986;44.028;20.466;2023-12-20T08:32:16;148.05;;;76.88;;
66179;SDS011;52986;44.028;20.466;2023-12-20T08:34:41;147.30;;;75.70;;
66179;SDS011;52986;44.028;20.466;2023-12-20T08:37:07;134.00;;;69.22;;
66179;SDS011;52986;44.028;20.466;2023-12-20T08:39:32;135.50;;;71.50;;
66179;SDS011;52986;44.028;20.466;2023-12-20T08:41:58;123.25;;;68.50;;
66179;SDS011;52986;44.028;20.466;2023-12-20T08:44:24;118.25;;;63.95;;
66179;SDS011;52986;44.028;20.466;2023-12-20T08:46:49;112.18;;;61.85;;
66179;SDS011;52986;44.028;20.466;2023-12-20T08:49:15;147.18;;;77.40;;
66179;SDS011;52986;44.028;20.466;2023-12-20T08:51:40;135.25;;;74.22;;
66179;SDS011;52986;44.028;20.466;2023-12-20T08:54:07;133.07;;;76.72;;
66179;SDS011;52986;44.028;20.466;2023-12-20T08:56:35;139.98;;;74.28;;
66179;SDS011;52986;44.028;20.466;2023-12-20T08:59:01;109.10;;;59.47;;
66179;SDS011;52986;44.028;20.466;2023-12-20T09:01:26;74.82;;;39.97;;
66179;SDS011;52986;44.028;20.466;2023-12-20T09:03:51;71.80;;;38.92;;
66179;SDS011;52986;44.028;20.466;2023-12-20T09:06:17;88.22;;;46.17;;
66179;SDS011;52986;44.028;20.466;2023-12-20T09:08:42;100.82;;;53.67;;
66179;SDS011;52986;44.028;20.466;2023-12-20T09:11:08;116.47;;;64.47;;
66179;SDS011;52986;44.028;20.466;2023-12-20T09:13:33;116.03;;;62.25;;
66179;SDS011;52986;44.028;20.466;2023-12-20T09:15:59;115.90;;;63.05;;
66179;SDS011;52986;44.028;20.466;2023-12-20T09:18:24;94.70;;;50.65;;
66179;SDS011;52986;44.028;20.466;2023-12-20T09:20:50;116.30;;;61.65;;
66179;SDS011;52986;44.028;20.466;2023-12-20T09:23:15;92.75;;;48.30;;
66179;SDS011;52986;44.028;20.466;2023-12-20T09:25:42;81.63;;;42.85;;
66179;SDS011;52986;44.028;20.466;2023-12-20T09:28:07;77.72;;;38.78;;
66179;SDS011;52986;44.028;20.466;2023-12-20T09:30:32;75.25;;;39.25;;
66179;SDS011;52986;44.028;20.466;2023-12-20T09:32:58;106.63;;;53.65;;
66179;SDS011;52986;44.028;20.466;2023-12-20T09:35:24;106.93;;;52.97;;
66179;SDS011;52986;44.028;20.466;2023-12-20T09:37:49;72.72;;;37.50;;
66179;SDS011;52986;44.028;20.466;2023-12-20T09:40:15;69.53;;;38.65;;
66179;SDS011;52986;44.028;20.466;2023-12-20T09:45:35;63.25;;;32.83;;
66179;SDS011;52986;44.028;20.466;2023-12-20T09:48:00;67.88;;;36.60;;
66179;SDS011;52986;44.028;20.466;2023-12-20T09:50:27;66.30;;;38.92;;
66179;SDS011;52986;44.028;20.466;2023-12-20T09:52:55;70.28;;;38.67;;
66179;SDS011;52986;44.028;20.466;2023-12-20T09:55:24;65.60;;;35.20;;
66179;SDS011;52986;44.028;20.466;2023-12-20T09:57:50;46.95;;;27.05;;
66179;SDS011;52986;44.028;20.466;2023-12-20T10:00:16;54.28;;;28.48;;
66179;SDS011;52986;44.028;20.466;2023-12-20T10:02:45;49.70;;;27.70;;
66179;SDS011;52986;44.028;20.466;2023-12-20T10:05:16;54.85;;;26.98;;
66179;SDS011;52986;44.028;20.466;2023-12-20T10:07:46;45.45;;;25.20;;
66179;SDS011;52986;44.028;20.466;2023-12-20T10:10:13;52.15;;;27.50;;
66179;SDS011;52986;44.028;20.466;2023-12-20T10:12:38;48.90;;;26.85;;
66179;SDS011;52986;44.028;20.466;2023-12-20T10:15:04;47.28;;;26.40;;
66179;SDS011;52986;44.028;20.466;2023-12-20T10:17:31;54.40;;;30.40;;
66179;SDS011;52986;44.028;20.466;2023-12-20T10:19:57;52.92;;;28.83;;
66179;SDS011;52986;44.028;20.466;2023-12-20T10:22:23;61.60;;;29.80;;
66179;SDS011;52986;44.028;20.466;2023-12-20T10:24:48;52.83;;;27.90;;
66179;SDS011;52986;44.028;20.466;2023-12-20T10:27:14;56.45;;;29.55;;
66179;SDS011;52986;44.028;20.466;2023-12-20T10:29:39;54.60;;;30.23;;
66179;SDS011;52986;44.028;20.466;2023-12-20T10:32:21;56.17;;;30.35;;
66179;SDS011;52986;44.028;20.466;2023-12-20T10:34:49;49.53;;;26.45;;
66179;SDS011;52986;44.028;20.466;2023-12-20T10:37:14;44.95;;;24.48;;
66179;SDS011;52986;44.028;20.466;2023-12-20T10:39:40;44.00;;;21.75;;
66179;SDS011;52986;44.028;20.466;2023-12-20T10:42:07;42.90;;;23.63;;
66179;SDS011;52986;44.028;20.466;2023-12-20T10:44:36;45.17;;;22.70;;
66179;SDS011;52986;44.028;20.466;2023-12-20T10:47:01;40.20;;;22.02;;
66179;SDS011;52986;44.028;20.466;2023-12-20T10:49:29;42.85;;;23.48;;
66179;SDS011;52986;44.028;20.466;2023-12-20T10:51:55;32.60;;;18.27;;
66179;SDS011;52986;44.028;20.466;2023-12-20T10:54:24;35.90;;;19.55;;
66179;SDS011;52986;44.028;20.466;2023-12-20T10:56:50;32.50;;;16.85;;
66179;SDS011;52986;44.028;20.466;2023-12-20T10:59:17;29.13;;;15.82;;
66179;SDS011;52986;44.028;20.466;2023-12-20T11:01:45;33.63;;;17.25;;
66179;SDS011;52986;44.028;20.466;2023-12-20T11:04:13;29.88;;;16.52;;
66179;SDS011;52986;44.028;20.466;2023-12-20T11:06:51;30.73;;;16.55;;
66179;SDS011;52986;44.028;20.466;2023-12-20T11:09:22;31.83;;;17.33;;
66179;SDS011;52986;44.028;20.466;2023-12-20T11:12:06;29.70;;;16.63;;
66179;SDS011;52986;44.028;20.466;2023-12-20T11:17:12;28.52;;;17.85;;
66179;SDS011;52986;44.028;20.466;2023-12-20T11:22:30;28.27;;;17.35;;
66179;SDS011;52986;44.028;20.466;2023-12-20T11:25:09;30.88;;;17.55;;
66179;SDS011;52986;44.028;20.466;2023-12-20T11:27:44;24.65;;;15.73;;
66179;SDS011;52986;44.028;20.466;2023-12-20T11:30:45;26.88;;;15.55;;
66179;SDS011;52986;44.028;20.466;2023-12-20T11:33:13;28.35;;;17.23;;
66179;SDS011;52986;44.028;20.466;2023-12-20T11:35:40;28.90;;;17.73;;
66179;SDS011;52986;44.028;20.466;2023-12-20T11:38:09;30.75;;;19.35;;
66179;SDS011;52986;44.028;20.466;2023-12-20T11:40:36;30.88;;;20.15;;
66179;SDS011;52986;44.028;20.466;2023-12-20T11:43:02;27.60;;;17.95;;
66179;SDS011;52986;44.028;20.466;2023-12-20T11:45:28;27.35;;;18.15;;
66179;SDS011;52986;44.028;20.466;2023-12-20T11:47:54;27.67;;;17.80;;
66179;SDS011;52986;44.028;20.466;2023-12-20T11:50:19;26.77;;;17.77;;
66179;SDS011;52986;44.028;20.466;2023-12-20T11:52:47;30.52;;;17.98;;
66179;SDS011;52986;44.028;20.466;2023-12-20T11:55:13;32.00;;;18.02;;
66179;SDS011;52986;44.028;20.466;2023-12-20T11:57:38;34.63;;;18.85;;
66179;SDS011;52986;44.028;20.466;2023-12-20T12:00:04;31.63;;;17.83;;
66179;SDS011;52986;44.028;20.466;2023-12-20T12:02:31;27.92;;;16.95;;
66179;SDS011;52986;44.028;20.466;2023-12-20T12:04:57;31.00;;;17.48;;
66179;SDS011;52986;44.028;20.466;2023-12-20T12:07:23;25.42;;;15.45;;
66179;SDS011;52986;44.028;20.466;2023-12-20T12:09:49;28.77;;;17.13;;
66179;SDS011;52986;44.028;20.466;2023-12-20T12:12:15;29.27;;;16.52;;
66179;SDS011;52986;44.028;20.466;2023-12-20T12:14:41;30.95;;;17.13;;
66179;SDS011;52986;44.028;20.466;2023-12-20T12:17:10;28.63;;;16.67;;
66179;SDS011;52986;44.028;20.466;2023-12-20T12:19:39;22.20;;;14.02;;
66179;SDS011;52986;44.028;20.466;2023-12-20T12:22:09;24.02;;;13.85;;
66179;SDS011;52986;44.028;20.466;2023-12-20T12:24:41;21.80;;;13.98;;
66179;SDS011;52986;44.028;20.466;2023-12-20T12:27:11;24.80;;;14.88;;
66179;SDS011;52986;44.028;20.466;2023-12-20T12:29:37;29.73;;;18.23;;
66179;SDS011;52986;44.028;20.466;2023-12-20T12:32:06;29.23;;;17.30;;
66179;SDS011;52986;44.028;20.466;2023-12-20T12:34:34;30.08;;;17.38;;
66179;SDS011;52986;44.028;20.466;2023-12-20T12:37:00;36.90;;;20.50;;
66179;SDS011;52986;44.028;20.466;2023-12-20T12:39:26;37.95;;;21.30;;
66179;SDS011;52986;44.028;20.466;2023-12-20T12:41:52;42.00;;;21.42;;
66179;SDS011;52986;44.028;20.466;2023-12-20T12:44:20;31.33;;;18.10;;
66179;SDS011;52986;44.028;20.466;2023-12-20T12:46:48;31.83;;;18.50;;
66179;SDS011;52986;44.028;20.466;2023-12-20T12:49:18;34.03;;;19.38;;
66179;SDS011;52986;44.028;20.466;2023-12-20T12:51:46;36.45;;;20.13;;
66179;SDS011;52986;44.028;20.466;2023-12-20T12:54:12;34.50;;;20.05;;
66179;SDS011;52986;44.028;20.466;2023-12-20T12:56:38;31.38;;;18.17;;
66179;SDS011;52986;44.028;20.466;2023-12-20T12:59:04;34.88;;;18.65;;
66179;SDS011;52986;44.028;20.466;2023-12-20T13:01:30;31.58;;;17.58;;
66179;SDS011;52986;44.028;20.466;2023-12-20T13:03:56;29.77;;;17.50;;
66179;SDS011;52986;44.028;20.466;2023-12-20T13:06:21;29.70;;;17.40;;
66179;SDS011;52986;44.028;20.466;2023-12-20T13:08:47;30.20;;;18.13;;
66179;SDS011;52986;44.028;20.466;2023-12-20T13:11:13;36.53;;;20.00;;
66179;SDS011;52986;44.028;20.466;2023-12-20T13:13:38;34.00;;;20.02;;
66179;SDS011;52986;44.028;20.466;2023-12-20T13:16:04;49.22;;;24.13;;
66179;SDS011;52986;44.028;20.466;2023-12-20T13:18:29;44.70;;;23.48;;
66179;SDS011;52986;44.028;20.466;2023-12-20T13:20:55;41.90;;;21.83;;
66179;SDS011;52986;44.028;20.466;2023-12-20T13:23:20;43.75;;;22.20;;
66179;SDS011;52986;44.028;20.466;2023-12-20T13:25:46;38.67;;;21.35;;
66179;SDS011;52986;44.028;20.466;2023-12-20T13:28:11;40.60;;;21.17;;
66179;SDS011;52986;44.028;20.466;2023-12-20T13:30:38;42.42;;;24.30;;
66179;SDS011;52986;44.028;20.466;2023-12-20T13:33:04;42.63;;;23.15;;
66179;SDS011;52986;44.028;20.466;2023-12-20T13:35:30;44.88;;;23.38;;
66179;SDS011;52986;44.028;20.466;2023-12-20T13:37:57;41.50;;;22.38;;
66179;SDS011;52986;44.028;20.466;2023-12-20T13:40:22;47.92;;;21.13;;
66179;SDS011;52986;44.028;20.466;2023-12-20T13:42:48;22.15;;;8.30;;
66179;SDS011;52986;44.028;20.466;2023-12-20T13:45:13;21.48;;;8.50;;
66179;SDS011;52986;44.028;20.466;2023-12-20T13:47:39;31.40;;;12.18;;
66179;SDS011;52986;44.028;20.466;2023-12-20T13:50:04;36.83;;;13.50;;
66179;SDS011;52986;44.028;20.466;2023-12-20T13:52:30;29.70;;;12.50;;
66179;SDS011;52986;44.028;20.466;2023-12-20T13:54:56;26.75;;;12.55;;
66179;SDS011;52986;44.028;20.466;2023-12-20T13:57:21;22.75;;;9.93;;
66179;SDS011;52986;44.028;20.466;2023-12-20T13:59:47;24.50;;;10.05;;
66179;SDS011;52986;44.028;20.466;2023-12-20T14:02:13;26.27;;;10.65;;
66179;SDS011;52986;44.028;20.466;2023-12-20T14:04:38;24.63;;;9.88;;